sensor_id;sensor_type;location;lat;lon;timestamp;temperature;humidity
13436;DHT22;6790;49.520;8.504;2022-11-06T00:00:55;6.40;99.90
13436;DHT22;6790;49.520;8.504;2022-11-06T00:03:22;6.50;99.90
13436;DHT22;6790;49.520;8.504;2022-11-06T00:05:48;6.40;99.90
13436;DHT22;6790;49.520;8.504;2022-11-06T00:08:35;6.50;99.90
13436;DHT22;6790;49.520;8.504;2022-11-06T00:11:10;6.50;99.90
13436;DHT22;6790;49.520;8.504;2022-11-06T00:13:37;6.40;99.90
13436;DHT22;6790;49.520;8.504;2022-11-06T00:16:05;6.40;99.90
13436;DHT22;6790;49.520;8.504;2022-11-06T00:18:33;6.40;99.90
13436;DHT22;6790;49.520;8.504;2022-11-06T00:23:34;6.30;99.90
13436;DHT22;6790;49.520;8.504;2022-11-06T00:26:07;6.20;99.90
13436;DHT22;6790;49.520;8.504;2022-11-06T00:28:34;6.20;99.90
13436;DHT22;6790;49.520;8.504;2022-11-06T00:31:05;6.30;99.90
13436;DHT22;6790;49.520;8.504;2022-11-06T00:33:32;6.30;99.90
13436;DHT22;6790;49.520;8.504;2022-11-06T00:36:00;6.30;99.90
13436;DHT22;6790;49.520;8.504;2022-11-06T00:38:27;6.30;99.90
13436;DHT22;6790;49.520;8.504;2022-11-06T00:40:53;6.20;99.90
13436;DHT22;6790;49.520;8.504;2022-11-06T00:43:19;6.20;99.90
13436;DHT22;6790;49.520;8.504;2022-11-06T00:45:45;6.20;99.90
13436;DHT22;6790;49.520;8.504;2022-11-06T00:48:10;6.20;99.90
13436;DHT22;6790;49.520;8.504;2022-11-06T00:50:36;6.20;99.90
13436;DHT22;6790;49.520;8.504;2022-11-06T00:53:02;6.20;99.90
13436;DHT22;6790;49.520;8.504;2022-11-06T00:55:27;6.20;99.90
13436;DHT22;6790;49.520;8.504;2022-11-06T00:57:53;6.20;99.90
13436;DHT22;6790;49.520;8.504;2022-11-06T01:00:19;6.30;99.90
13436;DHT22;6790;49.520;8.504;2022-11-06T01:02:45;6.20;99.90
13436;DHT22;6790;49.520;8.504;2022-11-06T01:05:12;6.20;99.90
13436;DHT22;6790;49.520;8.504;2022-11-06T01:07:39;6.30;99.90
13436;DHT22;6790;49.520;8.504;2022-11-06T01:10:05;6.40;99.90
13436;DHT22;6790;49.520;8.504;2022-11-06T01:12:32;6.50;99.90
13436;DHT22;6790;49.520;8.504;2022-11-06T01:14:58;6.50;99.90
13436;DHT22;6790;49.520;8.504;2022-11-06T01:17:24;6.50;99.90
13436;DHT22;6790;49.520;8.504;2022-11-06T01:19:50;6.50;99.90
13436;DHT22;6790;49.520;8.504;2022-11-06T01:22:16;6.50;99.90
13436;DHT22;6790;49.520;8.504;2022-11-06T01:24:41;6.50;99.90
13436;DHT22;6790;49.520;8.504;2022-11-06T01:27:08;6.60;99.90
13436;DHT22;6790;49.520;8.504;2022-11-06T01:29:34;6.60;99.90
13436;DHT22;6790;49.520;8.504;2022-11-06T01:31:59;6.60;99.90
13436;DHT22;6790;49.520;8.504;2022-11-06T01:34:26;6.60;99.90
13436;DHT22;6790;49.520;8.504;2022-11-06T01:36:51;6.60;99.90
13436;DHT22;6790;49.520;8.504;2022-11-06T01:39:17;6.60;99.90
13436;DHT22;6790;49.520;8.504;2022-11-06T01:41:47;6.50;99.90
13436;DHT22;6790;49.520;8.504;2022-11-06T01:46:59;6.50;99.90
13436;DHT22;6790;49.520;8.504;2022-11-06T01:49:26;6.50;99.90
13436;DHT22;6790;49.520;8.504;2022-11-06T01:51:57;6.40;99.90
13436;DHT22;6790;49.520;8.504;2022-11-06T01:54:28;6.40;99.90
13436;DHT22;6790;49.520;8.504;2022-11-06T01:56:56;6.30;99.90
13436;DHT22;6790;49.520;8.504;2022-11-06T01:59:26;6.30;99.90
13436;DHT22;6790;49.520;8.504;2022-11-06T02:01:53;6.30;99.90
13436;DHT22;6790;49.520;8.504;2022-11-06T02:04:26;6.20;99.90
13436;DHT22;6790;49.520;8.504;2022-11-06T02:06:55;6.20;99.90
13436;DHT22;6790;49.520;8.504;2022-11-06T02:09:22;6.10;99.90
13436;DHT22;6790;49.520;8.504;2022-11-06T02:15:25;6.10;99.90
13436;DHT22;6790;49.520;8.504;2022-11-06T02:24:00;6.20;99.90
13436;DHT22;6790;49.520;8.504;2022-11-06T02:29:20;6.30;99.90
13436;DHT22;6790;49.520;8.504;2022-11-06T02:31:53;6.20;99.90
13436;DHT22;6790;49.520;8.504;2022-11-06T02:34:23;6.20;99.90
13436;DHT22;6790;49.520;8.504;2022-11-06T02:36:54;6.10;99.90
13436;DHT22;6790;49.520;8.504;2022-11-06T02:39:24;6.20;99.90
13436;DHT22;6790;49.520;8.504;2022-11-06T02:41:52;6.10;99.90
13436;DHT22;6790;49.520;8.504;2022-11-06T02:44:21;6.10;99.90
13436;DHT22;6790;49.520;8.504;2022-11-06T02:46:55;6.10;99.90
13436;DHT22;6790;49.520;8.504;2022-11-06T02:49:32;6.00;99.90
13436;DHT22;6790;49.520;8.504;2022-11-06T02:52:13;5.80;99.90
13436;DHT22;6790;49.520;8.504;2022-11-06T02:54:47;5.80;99.90
13436;DHT22;6790;49.520;8.504;2022-11-06T02:57:36;5.80;99.90
13436;DHT22;6790;49.520;8.504;2022-11-06T03:00:09;5.90;99.90
13436;DHT22;6790;49.520;8.504;2022-11-06T03:02:41;5.90;99.90
13436;DHT22;6790;49.520;8.504;2022-11-06T03:05:34;5.90;99.90
13436;DHT22;6790;49.520;8.504;2022-11-06T03:11:21;5.80;99.90
13436;DHT22;6790;49.520;8.504;2022-11-06T03:14:08;5.80;99.90
13436;DHT22;6790;49.520;8.504;2022-11-06T03:17:14;5.80;99.90
13436;DHT22;6790;49.520;8.504;2022-11-06T03:20:27;5.70;99.90
13436;DHT22;6790;49.520;8.504;2022-11-06T03:25:55;5.70;99.90
13436;DHT22;6790;49.520;8.504;2022-11-06T03:28:41;5.70;99.90
13436;DHT22;6790;49.520;8.504;2022-11-06T03:31:16;5.70;99.90
13436;DHT22;6790;49.520;8.504;2022-11-06T03:33:49;5.70;99.90
13436;DHT22;6790;49.520;8.504;2022-11-06T03:36:24;5.70;99.90
13436;DHT22;6790;49.520;8.504;2022-11-06T03:39:03;5.70;99.90
13436;DHT22;6790;49.520;8.504;2022-11-06T03:44:14;5.70;99.90
13436;DHT22;6790;49.520;8.504;2022-11-06T03:46:49;5.70;99.90
13436;DHT22;6790;49.520;8.504;2022-11-06T03:49:28;5.70;99.90
13436;DHT22;6790;49.520;8.504;2022-11-06T03:52:07;5.70;99.90
13436;DHT22;6790;49.520;8.504;2022-11-06T03:54:48;5.70;99.90
13436;DHT22;6790;49.520;8.504;2022-11-06T03:57:24;5.60;99.90
13436;DHT22;6790;49.520;8.504;2022-11-06T03:59:57;5.60;99.90
13436;DHT22;6790;49.520;8.504;2022-11-06T04:02:28;5.60;99.90
13436;DHT22;6790;49.520;8.504;2022-11-06T04:04:59;5.50;99.90
13436;DHT22;6790;49.520;8.504;2022-11-06T04:07:33;5.40;99.90
13436;DHT22;6790;49.520;8.504;2022-11-06T04:10:03;5.40;99.90
13436;DHT22;6790;49.520;8.504;2022-11-06T04:12:50;5.40;99.90
13436;DHT22;6790;49.520;8.504;2022-11-06T04:15:51;5.40;99.90
13436;DHT22;6790;49.520;8.504;2022-11-06T04:18:18;5.40;99.90
13436;DHT22;6790;49.520;8.504;2022-11-06T04:20:56;5.40;99.90
13436;DHT22;6790;49.520;8.504;2022-11-06T04:23:58;5.40;99.90
13436;DHT22;6790;49.520;8.504;2022-11-06T04:30:21;5.30;99.90
13436;DHT22;6790;49.520;8.504;2022-11-06T04:33:05;5.40;99.90
13436;DHT22;6790;49.520;8.504;2022-11-06T04:36:05;5.30;99.90
13436;DHT22;6790;49.520;8.504;2022-11-06T04:38:54;5.50;99.90
13436;DHT22;6790;49.520;8.504;2022-11-06T04:44:34;5.50;99.90
13436;DHT22;6790;49.520;8.504;2022-11-06T04:47:09;5.50;99.90
13436;DHT22;6790;49.520;8.504;2022-11-06T04:49:39;5.50;99.90
13436;DHT22;6790;49.520;8.504;2022-11-06T04:52:10;5.40;99.90
13436;DHT22;6790;49.520;8.504;2022-11-06T04:54:38;5.30;99.90
13436;DHT22;6790;49.520;8.504;2022-11-06T04:57:03;5.10;99.90
13436;DHT22;6790;49.520;8.504;2022-11-06T04:59:33;5.10;99.90
13436;DHT22;6790;49.520;8.504;2022-11-06T05:02:00;5.10;99.90
13436;DHT22;6790;49.520;8.504;2022-11-06T05:04:26;5.10;99.90
13436;DHT22;6790;49.520;8.504;2022-11-06T05:06:51;5.20;99.90
13436;DHT22;6790;49.520;8.504;2022-11-06T05:09:17;5.20;99.90
13436;DHT22;6790;49.520;8.504;2022-11-06T05:11:43;5.20;99.90
13436;DHT22;6790;49.520;8.504;2022-11-06T05:14:08;5.30;99.90
13436;DHT22;6790;49.520;8.504;2022-11-06T05:16:35;5.30;99.90
13436;DHT22;6790;49.520;8.504;2022-11-06T05:19:00;5.20;99.90
13436;DHT22;6790;49.520;8.504;2022-11-06T05:21:26;5.10;99.90
13436;DHT22;6790;49.520;8.504;2022-11-06T05:24:10;5.10;99.90
13436;DHT22;6790;49.520;8.504;2022-11-06T05:26:36;5.20;99.90
13436;DHT22;6790;49.520;8.504;2022-11-06T05:29:01;5.10;99.90
13436;DHT22;6790;49.520;8.504;2022-11-06T05:31:27;5.10;99.90
13436;DHT22;6790;49.520;8.504;2022-11-06T05:33:53;5.10;99.90
13436;DHT22;6790;49.520;8.504;2022-11-06T05:36:19;5.10;99.90
13436;DHT22;6790;49.520;8.504;2022-11-06T05:38:44;5.10;99.90
13436;DHT22;6790;49.520;8.504;2022-11-06T05:41:10;5.00;99.90
13436;DHT22;6790;49.520;8.504;2022-11-06T05:43:36;5.10;99.90
13436;DHT22;6790;49.520;8.504;2022-11-06T05:46:02;5.10;99.90
13436;DHT22;6790;49.520;8.504;2022-11-06T05:48:28;5.20;99.90
13436;DHT22;6790;49.520;8.504;2022-11-06T05:51:02;5.10;99.90
13436;DHT22;6790;49.520;8.504;2022-11-06T05:53:34;5.10;99.90
13436;DHT22;6790;49.520;8.504;2022-11-06T05:56:01;5.00;99.90
13436;DHT22;6790;49.520;8.504;2022-11-06T05:58:27;4.90;99.90
13436;DHT22;6790;49.520;8.504;2022-11-06T06:00:54;4.80;99.90
13436;DHT22;6790;49.520;8.504;2022-11-06T06:03:21;4.90;99.90
13436;DHT22;6790;49.520;8.504;2022-11-06T06:05:47;4.80;99.90
13436;DHT22;6790;49.520;8.504;2022-11-06T06:08:13;4.70;99.90
13436;DHT22;6790;49.520;8.504;2022-11-06T06:10:43;4.70;99.90
13436;DHT22;6790;49.520;8.504;2022-11-06T06:13:10;4.80;99.90
13436;DHT22;6790;49.520;8.504;2022-11-06T06:15:37;4.60;99.90
13436;DHT22;6790;49.520;8.504;2022-11-06T06:18:03;4.70;99.90
13436;DHT22;6790;49.520;8.504;2022-11-06T06:20:30;4.60;99.90
13436;DHT22;6790;49.520;8.504;2022-11-06T06:22:57;4.60;99.90
13436;DHT22;6790;49.520;8.504;2022-11-06T06:25:24;4.60;99.90
13436;DHT22;6790;49.520;8.504;2022-11-06T06:27:50;4.60;99.90
13436;DHT22;6790;49.520;8.504;2022-11-06T06:30:16;4.50;99.90
13436;DHT22;6790;49.520;8.504;2022-11-06T06:32:42;4.50;99.90
13436;DHT22;6790;49.520;8.504;2022-11-06T06:35:08;4.50;99.90
13436;DHT22;6790;49.520;8.504;2022-11-06T06:37:34;4.40;99.90
13436;DHT22;6790;49.520;8.504;2022-11-06T06:40:00;4.40;99.90
13436;DHT22;6790;49.520;8.504;2022-11-06T06:42:27;4.40;99.90
13436;DHT22;6790;49.520;8.504;2022-11-06T06:44:53;4.50;99.90
13436;DHT22;6790;49.520;8.504;2022-11-06T06:47:19;4.50;99.90
13436;DHT22;6790;49.520;8.504;2022-11-06T06:49:45;4.50;99.90
13436;DHT22;6790;49.520;8.504;2022-11-06T06:52:11;4.50;99.90
13436;DHT22;6790;49.520;8.504;2022-11-06T06:54:37;4.50;99.90
13436;DHT22;6790;49.520;8.504;2022-11-06T06:57:03;4.60;99.90
13436;DHT22;6790;49.520;8.504;2022-11-06T06:59:29;4.50;99.90
13436;DHT22;6790;49.520;8.504;2022-11-06T07:01:55;4.60;99.90
13436;DHT22;6790;49.520;8.504;2022-11-06T07:04:22;4.70;99.90
13436;DHT22;6790;49.520;8.504;2022-11-06T07:06:48;4.60;99.90
13436;DHT22;6790;49.520;8.504;2022-11-06T07:09:14;4.70;99.90
13436;DHT22;6790;49.520;8.504;2022-11-06T07:11:40;4.70;99.90
13436;DHT22;6790;49.520;8.504;2022-11-06T07:14:06;4.80;99.90
13436;DHT22;6790;49.520;8.504;2022-11-06T07:16:31;4.80;99.90
13436;DHT22;6790;49.520;8.504;2022-11-06T07:18:58;4.80;99.90
13436;DHT22;6790;49.520;8.504;2022-11-06T07:21:24;4.90;99.90
13436;DHT22;6790;49.520;8.504;2022-11-06T07:23:49;4.90;99.90
13436;DHT22;6790;49.520;8.504;2022-11-06T07:26:15;5.00;99.90
13436;DHT22;6790;49.520;8.504;2022-11-06T07:28:41;5.00;99.90
13436;DHT22;6790;49.520;8.504;2022-11-06T07:31:08;5.00;99.90
13436;DHT22;6790;49.520;8.504;2022-11-06T07:33:34;5.00;99.90
13436;DHT22;6790;49.520;8.504;2022-11-06T07:36:04;5.10;99.90
13436;DHT22;6790;49.520;8.504;2022-11-06T07:38:32;5.00;99.90
13436;DHT22;6790;49.520;8.504;2022-11-06T07:41:08;5.10;99.90
13436;DHT22;6790;49.520;8.504;2022-11-06T07:43:35;5.30;99.90
13436;DHT22;6790;49.520;8.504;2022-11-06T07:46:02;5.30;99.90
13436;DHT22;6790;49.520;8.504;2022-11-06T07:48:30;5.50;99.90
13436;DHT22;6790;49.520;8.504;2022-11-06T07:50:57;5.50;99.90
13436;DHT22;6790;49.520;8.504;2022-11-06T07:53:23;5.70;99.90
13436;DHT22;6790;49.520;8.504;2022-11-06T07:55:49;5.90;99.90
13436;DHT22;6790;49.520;8.504;2022-11-06T07:58:16;6.00;99.90
13436;DHT22;6790;49.520;8.504;2022-11-06T08:00:49;6.00;99.90
13436;DHT22;6790;49.520;8.504;2022-11-06T08:03:17;6.30;99.90
13436;DHT22;6790;49.520;8.504;2022-11-06T08:05:43;6.40;99.90
13436;DHT22;6790;49.520;8.504;2022-11-06T08:08:09;6.50;99.90
13436;DHT22;6790;49.520;8.504;2022-11-06T08:10:35;6.60;99.90
13436;DHT22;6790;49.520;8.504;2022-11-06T08:13:05;6.80;99.90
13436;DHT22;6790;49.520;8.504;2022-11-06T08:15:32;6.90;99.90
13436;DHT22;6790;49.520;8.504;2022-11-06T08:17:58;7.00;99.90
13436;DHT22;6790;49.520;8.504;2022-11-06T08:20:24;7.10;99.90
13436;DHT22;6790;49.520;8.504;2022-11-06T08:22:50;7.20;99.90
13436;DHT22;6790;49.520;8.504;2022-11-06T08:25:16;7.30;99.90
13436;DHT22;6790;49.520;8.504;2022-11-06T08:27:42;7.30;99.90
13436;DHT22;6790;49.520;8.504;2022-11-06T08:30:08;7.50;99.90
13436;DHT22;6790;49.520;8.504;2022-11-06T08:32:34;7.60;99.90
13436;DHT22;6790;49.520;8.504;2022-11-06T08:35:00;7.60;99.90
13436;DHT22;6790;49.520;8.504;2022-11-06T08:37:25;7.70;99.90
13436;DHT22;6790;49.520;8.504;2022-11-06T08:39:51;7.80;99.90
13436;DHT22;6790;49.520;8.504;2022-11-06T08:42:17;7.80;99.90
13436;DHT22;6790;49.520;8.504;2022-11-06T08:44:42;7.80;99.90
13436;DHT22;6790;49.520;8.504;2022-11-06T08:47:08;7.70;99.90
13436;DHT22;6790;49.520;8.504;2022-11-06T08:49:34;7.80;99.90
13436;DHT22;6790;49.520;8.504;2022-11-06T08:51:59;7.80;99.90
13436;DHT22;6790;49.520;8.504;2022-11-06T08:54:25;7.70;99.90
13436;DHT22;6790;49.520;8.504;2022-11-06T08:56:51;7.80;99.90
13436;DHT22;6790;49.520;8.504;2022-11-06T08:59:17;7.90;99.90
13436;DHT22;6790;49.520;8.504;2022-11-06T09:01:43;7.90;99.90
13436;DHT22;6790;49.520;8.504;2022-11-06T09:04:08;7.90;99.90
13436;DHT22;6790;49.520;8.504;2022-11-06T09:06:34;7.90;99.90
13436;DHT22;6790;49.520;8.504;2022-11-06T09:09:00;8.00;99.90
13436;DHT22;6790;49.520;8.504;2022-11-06T09:11:25;8.00;99.90
13436;DHT22;6790;49.520;8.504;2022-11-06T09:13:51;8.10;99.90
13436;DHT22;6790;49.520;8.504;2022-11-06T09:16:17;8.10;99.90
13436;DHT22;6790;49.520;8.504;2022-11-06T09:18:42;8.20;99.90
13436;DHT22;6790;49.520;8.504;2022-11-06T09:21:08;8.30;99.90
13436;DHT22;6790;49.520;8.504;2022-11-06T09:23:34;8.30;99.90
13436;DHT22;6790;49.520;8.504;2022-11-06T09:26:00;8.50;99.90
13436;DHT22;6790;49.520;8.504;2022-11-06T09:28:26;8.50;99.90
13436;DHT22;6790;49.520;8.504;2022-11-06T09:30:51;8.50;99.90
13436;DHT22;6790;49.520;8.504;2022-11-06T09:33:18;8.60;99.90
13436;DHT22;6790;49.520;8.504;2022-11-06T09:35:44;8.60;99.90
13436;DHT22;6790;49.520;8.504;2022-11-06T09:38:11;8.70;99.90
13436;DHT22;6790;49.520;8.504;2022-11-06T09:40:45;8.70;99.90
13436;DHT22;6790;49.520;8.504;2022-11-06T09:46:09;9.10;99.90
13436;DHT22;6790;49.520;8.504;2022-11-06T09:48:45;9.10;99.90
13436;DHT22;6790;49.520;8.504;2022-11-06T09:54:06;9.30;99.90
13436;DHT22;6790;49.520;8.504;2022-11-06T09:56:38;9.30;99.90
13436;DHT22;6790;49.520;8.504;2022-11-06T09:59:09;9.40;99.90
13436;DHT22;6790;49.520;8.504;2022-11-06T10:01:54;9.50;99.90
13436;DHT22;6790;49.520;8.504;2022-11-06T10:04:34;9.40;99.90
13436;DHT22;6790;49.520;8.504;2022-11-06T10:07:23;9.50;99.90
13436;DHT22;6790;49.520;8.504;2022-11-06T10:09:52;9.60;99.90
13436;DHT22;6790;49.520;8.504;2022-11-06T10:18:12;9.70;99.90
13436;DHT22;6790;49.520;8.504;2022-11-06T10:20:56;9.70;99.90
13436;DHT22;6790;49.520;8.504;2022-11-06T10:23:55;9.70;99.90
13436;DHT22;6790;49.520;8.504;2022-11-06T10:26:39;9.80;99.90
13436;DHT22;6790;49.520;8.504;2022-11-06T10:35:33;10.10;99.90
13436;DHT22;6790;49.520;8.504;2022-11-06T10:38:10;10.10;99.90
13436;DHT22;6790;49.520;8.504;2022-11-06T10:40:38;10.10;99.90
13436;DHT22;6790;49.520;8.504;2022-11-06T10:43:22;10.10;99.90
13436;DHT22;6790;49.520;8.504;2022-11-06T10:46:13;10.20;99.90
13436;DHT22;6790;49.520;8.504;2022-11-06T10:48:56;10.30;99.90
13436;DHT22;6790;49.520;8.504;2022-11-06T10:57:03;10.50;99.90
13436;DHT22;6790;49.520;8.504;2022-11-06T10:59:33;10.60;99.90
13436;DHT22;6790;49.520;8.504;2022-11-06T11:01:58;10.60;99.90
13436;DHT22;6790;49.520;8.504;2022-11-06T11:04:24;10.50;99.90
13436;DHT22;6790;49.520;8.504;2022-11-06T11:06:50;10.60;99.90
13436;DHT22;6790;49.520;8.504;2022-11-06T11:09:32;10.60;99.90
13436;DHT22;6790;49.520;8.504;2022-11-06T11:11:59;10.70;99.90
13436;DHT22;6790;49.520;8.504;2022-11-06T11:14:27;10.60;99.90
13436;DHT22;6790;49.520;8.504;2022-11-06T11:16:54;10.70;99.90
13436;DHT22;6790;49.520;8.504;2022-11-06T11:19:37;10.80;99.90
13436;DHT22;6790;49.520;8.504;2022-11-06T11:24:59;10.90;99.90
13436;DHT22;6790;49.520;8.504;2022-11-06T11:27:31;11.10;99.90
13436;DHT22;6790;49.520;8.504;2022-11-06T11:30:03;11.10;99.90
13436;DHT22;6790;49.520;8.504;2022-11-06T11:32:29;11.00;99.90
13436;DHT22;6790;49.520;8.504;2022-11-06T11:34:56;11.00;99.90
13436;DHT22;6790;49.520;8.504;2022-11-06T11:37:30;11.10;99.90
13436;DHT22;6790;49.520;8.504;2022-11-06T11:40:17;11.00;99.90
13436;DHT22;6790;49.520;8.504;2022-11-06T11:42:43;11.10;99.90
13436;DHT22;6790;49.520;8.504;2022-11-06T11:47:40;10.90;99.90
13436;DHT22;6790;49.520;8.504;2022-11-06T11:50:31;11.00;99.90
13436;DHT22;6790;49.520;8.504;2022-11-06T11:53:13;11.10;99.90
13436;DHT22;6790;49.520;8.504;2022-11-06T11:55:46;11.10;99.90
13436;DHT22;6790;49.520;8.504;2022-11-06T11:58:25;11.10;99.90
13436;DHT22;6790;49.520;8.504;2022-11-06T12:00:58;11.30;99.90
13436;DHT22;6790;49.520;8.504;2022-11-06T12:03:46;11.20;99.90
13436;DHT22;6790;49.520;8.504;2022-11-06T12:06:16;11.10;99.90
13436;DHT22;6790;49.520;8.504;2022-11-06T12:08:51;11.10;99.90
13436;DHT22;6790;49.520;8.504;2022-11-06T12:11:26;11.00;99.90
13436;DHT22;6790;49.520;8.504;2022-11-06T12:14:16;11.10;99.90
13436;DHT22;6790;49.520;8.504;2022-11-06T12:17:05;11.10;99.90
13436;DHT22;6790;49.520;8.504;2022-11-06T12:19:36;11.10;99.90
13436;DHT22;6790;49.520;8.504;2022-11-06T12:22:09;11.10;99.90
13436;DHT22;6790;49.520;8.504;2022-11-06T12:27:27;11.30;99.90
13436;DHT22;6790;49.520;8.504;2022-11-06T12:30:02;11.40;99.90
13436;DHT22;6790;49.520;8.504;2022-11-06T12:32:53;11.40;99.90
13436;DHT22;6790;49.520;8.504;2022-11-06T12:38:44;11.70;99.90
13436;DHT22;6790;49.520;8.504;2022-11-06T12:43:50;11.70;99.90
13436;DHT22;6790;49.520;8.504;2022-11-06T13:00:22;11.60;99.90
13436;DHT22;6790;49.520;8.504;2022-11-06T13:13:07;11.50;99.90
13436;DHT22;6790;49.520;8.504;2022-11-06T13:23:54;11.50;99.90
13436;DHT22;6790;49.520;8.504;2022-11-06T13:26:36;11.50;99.90
13436;DHT22;6790;49.520;8.504;2022-11-06T13:29:09;11.50;99.90
13436;DHT22;6790;49.520;8.504;2022-11-06T13:34:25;11.40;99.90
13436;DHT22;6790;49.520;8.504;2022-11-06T13:36:54;11.40;99.90
13436;DHT22;6790;49.520;8.504;2022-11-06T13:39:33;11.30;99.90
13436;DHT22;6790;49.520;8.504;2022-11-06T13:42:15;11.30;99.90
13436;DHT22;6790;49.520;8.504;2022-11-06T13:44:45;11.30;99.90
13436;DHT22;6790;49.520;8.504;2022-11-06T13:50:03;11.20;99.90
13436;DHT22;6790;49.520;8.504;2022-11-06T13:52:40;11.20;99.90
13436;DHT22;6790;49.520;8.504;2022-11-06T13:55:27;11.10;99.90
13436;DHT22;6790;49.520;8.504;2022-11-06T13:58:20;11.10;99.90
13436;DHT22;6790;49.520;8.504;2022-11-06T14:04:30;11.10;99.90
13436;DHT22;6790;49.520;8.504;2022-11-06T14:07:04;11.10;99.90
13436;DHT22;6790;49.520;8.504;2022-11-06T14:09:33;11.00;99.90
13436;DHT22;6790;49.520;8.504;2022-11-06T14:12:04;11.00;99.90
13436;DHT22;6790;49.520;8.504;2022-11-06T14:14:32;11.00;99.90
13436;DHT22;6790;49.520;8.504;2022-11-06T14:17:10;11.00;99.90
13436;DHT22;6790;49.520;8.504;2022-11-06T14:19:37;11.00;99.90
13436;DHT22;6790;49.520;8.504;2022-11-06T14:22:24;11.00;99.90
13436;DHT22;6790;49.520;8.504;2022-11-06T14:24:51;11.00;99.90
13436;DHT22;6790;49.520;8.504;2022-11-06T14:29:59;11.00;99.90
13436;DHT22;6790;49.520;8.504;2022-11-06T14:32:46;11.10;99.90
13436;DHT22;6790;49.520;8.504;2022-11-06T14:40:53;11.10;99.90
13436;DHT22;6790;49.520;8.504;2022-11-06T14:43:24;11.10;99.90
13436;DHT22;6790;49.520;8.504;2022-11-06T14:46:06;11.10;99.90
13436;DHT22;6790;49.520;8.504;2022-11-06T14:48:43;11.10;99.90
13436;DHT22;6790;49.520;8.504;2022-11-06T14:51:12;11.00;99.90
13436;DHT22;6790;49.520;8.504;2022-11-06T14:53:48;11.00;99.90
13436;DHT22;6790;49.520;8.504;2022-11-06T14:56:36;10.90;99.90
13436;DHT22;6790;49.520;8.504;2022-11-06T14:59:15;11.00;99.90
13436;DHT22;6790;49.520;8.504;2022-11-06T15:01:57;11.00;99.90
13436;DHT22;6790;49.520;8.504;2022-11-06T15:04:29;10.90;99.90
13436;DHT22;6790;49.520;8.504;2022-11-06T15:07:06;10.90;99.90
13436;DHT22;6790;49.520;8.504;2022-11-06T15:12:04;10.80;99.90
13436;DHT22;6790;49.520;8.504;2022-11-06T15:17:10;10.80;99.90
13436;DHT22;6790;49.520;8.504;2022-11-06T15:19:40;10.70;99.90
13436;DHT22;6790;49.520;8.504;2022-11-06T15:22:25;10.70;99.90
13436;DHT22;6790;49.520;8.504;2022-11-06T15:24:57;10.70;99.90
13436;DHT22;6790;49.520;8.504;2022-11-06T15:27:32;10.70;99.90
13436;DHT22;6790;49.520;8.504;2022-11-06T15:30:02;10.70;99.90
13436;DHT22;6790;49.520;8.504;2022-11-06T15:32:31;10.60;99.90
13436;DHT22;6790;49.520;8.504;2022-11-06T15:35:10;10.70;99.90
13436;DHT22;6790;49.520;8.504;2022-11-06T15:37:50;10.70;99.90
13436;DHT22;6790;49.520;8.504;2022-11-06T15:40:37;10.70;99.90
13436;DHT22;6790;49.520;8.504;2022-11-06T15:43:30;10.60;99.90
13436;DHT22;6790;49.520;8.504;2022-11-06T15:46:05;10.50;99.90
13436;DHT22;6790;49.520;8.504;2022-11-06T15:48:40;10.50;99.90
13436;DHT22;6790;49.520;8.504;2022-11-06T15:51:26;10.50;99.90
13436;DHT22;6790;49.520;8.504;2022-11-06T15:53:53;10.50;99.90
13436;DHT22;6790;49.520;8.504;2022-11-06T15:56:26;10.50;99.90
13436;DHT22;6790;49.520;8.504;2022-11-06T15:59:13;10.50;99.90
13436;DHT22;6790;49.520;8.504;2022-11-06T16:01:46;10.50;99.90
13436;DHT22;6790;49.520;8.504;2022-11-06T16:04:16;10.40;99.90
13436;DHT22;6790;49.520;8.504;2022-11-06T16:06:44;10.50;99.90
13436;DHT22;6790;49.520;8.504;2022-11-06T16:09:24;10.40;99.90
13436;DHT22;6790;49.520;8.504;2022-11-06T16:11:51;10.40;99.90
13436;DHT22;6790;49.520;8.504;2022-11-06T16:14:19;10.40;99.90
13436;DHT22;6790;49.520;8.504;2022-11-06T16:16:51;10.40;99.90
13436;DHT22;6790;49.520;8.504;2022-11-06T16:19:33;10.40;99.90
13436;DHT22;6790;49.520;8.504;2022-11-06T16:22:06;10.40;99.90
13436;DHT22;6790;49.520;8.504;2022-11-06T16:24:41;10.30;99.90
13436;DHT22;6790;49.520;8.504;2022-11-06T16:27:10;10.40;99.90
13436;DHT22;6790;49.520;8.504;2022-11-06T16:29:36;10.40;99.90
13436;DHT22;6790;49.520;8.504;2022-11-06T16:32:07;10.30;99.90
13436;DHT22;6790;49.520;8.504;2022-11-06T16:34:43;10.40;99.90
13436;DHT22;6790;49.520;8.504;2022-11-06T16:45:00;10.30;99.90
13436;DHT22;6790;49.520;8.504;2022-11-06T16:47:27;10.20;99.90
13436;DHT22;6790;49.520;8.504;2022-11-06T16:49:57;10.20;99.90
13436;DHT22;6790;49.520;8.504;2022-11-06T16:52:35;10.20;99.90
13436;DHT22;6790;49.520;8.504;2022-11-06T16:55:22;10.30;99.90
13436;DHT22;6790;49.520;8.504;2022-11-06T16:57:55;10.30;99.90
13436;DHT22;6790;49.520;8.504;2022-11-06T17:05:25;10.40;99.90
13436;DHT22;6790;49.520;8.504;2022-11-06T17:08:20;10.40;99.90
13436;DHT22;6790;49.520;8.504;2022-11-06T17:10:49;10.40;99.90
13436;DHT22;6790;49.520;8.504;2022-11-06T17:16:03;10.40;99.90
13436;DHT22;6790;49.520;8.504;2022-11-06T17:18:35;10.40;99.90
13436;DHT22;6790;49.520;8.504;2022-11-06T17:21:04;10.40;99.90
13436;DHT22;6790;49.520;8.504;2022-11-06T17:23:32;10.50;99.90
13436;DHT22;6790;49.520;8.504;2022-11-06T17:26:06;10.50;99.90
13436;DHT22;6790;49.520;8.504;2022-11-06T17:28:37;10.50;99.90
13436;DHT22;6790;49.520;8.504;2022-11-06T17:31:03;10.40;99.90
13436;DHT22;6790;49.520;8.504;2022-11-06T17:33:29;10.40;99.90
13436;DHT22;6790;49.520;8.504;2022-11-06T17:35:55;10.40;99.90
13436;DHT22;6790;49.520;8.504;2022-11-06T17:38:20;10.30;99.90
13436;DHT22;6790;49.520;8.504;2022-11-06T17:40:46;10.30;99.90
13436;DHT22;6790;49.520;8.504;2022-11-06T17:43:12;10.30;99.90
13436;DHT22;6790;49.520;8.504;2022-11-06T17:45:39;10.20;99.90
13436;DHT22;6790;49.520;8.504;2022-11-06T17:48:06;10.20;99.90
13436;DHT22;6790;49.520;8.504;2022-11-06T17:50:32;10.10;99.90
13436;DHT22;6790;49.520;8.504;2022-11-06T17:53:18;10.00;99.90
13436;DHT22;6790;49.520;8.504;2022-11-06T17:55:43;10.00;99.90
13436;DHT22;6790;49.520;8.504;2022-11-06T17:58:09;10.00;99.90
13436;DHT22;6790;49.520;8.504;2022-11-06T18:00:35;10.00;99.90
13436;DHT22;6790;49.520;8.504;2022-11-06T18:03:00;10.00;99.90
13436;DHT22;6790;49.520;8.504;2022-11-06T18:05:26;10.00;99.90
13436;DHT22;6790;49.520;8.504;2022-11-06T18:07:52;9.90;99.90
13436;DHT22;6790;49.520;8.504;2022-11-06T18:10:17;10.00;99.90
13436;DHT22;6790;49.520;8.504;2022-11-06T18:12:43;10.00;99.90
13436;DHT22;6790;49.520;8.504;2022-11-06T18:15:09;10.00;99.90
13436;DHT22;6790;49.520;8.504;2022-11-06T18:17:35;10.00;99.90
13436;DHT22;6790;49.520;8.504;2022-11-06T18:20:01;10.00;99.90
13436;DHT22;6790;49.520;8.504;2022-11-06T18:22:27;9.90;99.90
13436;DHT22;6790;49.520;8.504;2022-11-06T18:24:53;10.00;99.90
13436;DHT22;6790;49.520;8.504;2022-11-06T18:27:18;10.00;99.90
13436;DHT22;6790;49.520;8.504;2022-11-06T18:29:44;10.00;99.90
13436;DHT22;6790;49.520;8.504;2022-11-06T18:32:10;9.90;99.90
13436;DHT22;6790;49.520;8.504;2022-11-06T18:34:35;9.90;99.90
13436;DHT22;6790;49.520;8.504;2022-11-06T18:37:01;9.90;99.90
13436;DHT22;6790;49.520;8.504;2022-11-06T18:39:27;9.90;99.90
13436;DHT22;6790;49.520;8.504;2022-11-06T18:41:52;9.90;99.90